createdAt,value
2023-02-01T00:01:08.302Z,6.80
2023-02-01T00:03:35.273Z,6.80
2023-02-01T00:06:02.660Z,6.90
2023-02-01T00:08:29.984Z,6.90
2023-02-01T00:11:11.305Z,6.90
2023-02-01T00:13:42.202Z,6.90
2023-02-01T00:16:15.328Z,6.90
2023-02-01T00:18:42.292Z,6.80
2023-02-01T00:21:11.004Z,6.80
2023-02-01T00:23:39.637Z,6.90
2023-02-01T00:26:11.679Z,6.80
2023-02-01T00:28:38.497Z,6.90
2023-02-01T00:31:06.039Z,6.80
2023-02-01T00:33:33.919Z,6.90
2023-02-01T00:36:05.321Z,7.00
2023-02-01T00:38:34.023Z,7.00
2023-02-01T00:41:17.817Z,7.00
2023-02-01T00:43:45.749Z,7.10
2023-02-01T00:46:14.811Z,7.20
2023-02-01T00:48:41.944Z,7.40
2023-02-01T00:51:17.006Z,7.40
2023-02-01T00:53:44.639Z,7.50
2023-02-01T00:56:13.041Z,7.60
2023-02-01T00:58:44.386Z,7.60
2023-02-01T01:01:18.390Z,7.70
2023-02-01T01:03:56.062Z,7.70
2023-02-01T01:06:29.809Z,7.60
2023-02-01T01:08:59.214Z,7.50
2023-02-01T01:11:30.586Z,7.60
2023-02-01T01:13:59.505Z,7.70
2023-02-01T01:16:29.283Z,7.60
2023-02-01T01:18:58.035Z,7.90
2023-02-01T01:21:25.924Z,7.80
2023-02-01T01:23:53.917Z,7.80
2023-02-01T01:26:25.019Z,7.70
2023-02-01T01:28:53.152Z,7.80
2023-02-01T01:31:21.610Z,7.80
2023-02-01T01:33:55.332Z,7.60
2023-02-01T01:36:23.045Z,7.60
2023-02-01T01:38:50.188Z,7.70
2023-02-01T01:41:24.745Z,8.00
2023-02-01T01:44:05.665Z,7.90
2023-02-01T01:46:36.446Z,7.70
2023-02-01T01:49:13.728Z,7.70
2023-02-01T01:51:52.049Z,7.80
2023-02-01T01:54:36.277Z,8.00
2023-02-01T01:57:31.585Z,7.90
2023-02-01T02:00:18.523Z,7.80
2023-02-01T02:02:48.855Z,8.10
2023-02-01T02:05:18.434Z,7.90
2023-02-01T02:07:49.769Z,8.10
2023-02-01T02:10:17.853Z,8.20
2023-02-01T02:12:48.551Z,8.20
2023-02-01T02:15:18.010Z,8.20
2023-02-01T02:18:10.301Z,8.20
2023-02-01T02:21:33.378Z,8.10
2023-02-01T02:24:18.550Z,8.30
2023-02-01T02:27:01.481Z,8.20
2023-02-01T02:29:49.656Z,8.10
2023-02-01T02:32:31.489Z,8.00
2023-02-01T02:36:02.788Z,8.10
2023-02-01T02:39:05.056Z,8.30
2023-02-01T02:42:36.386Z,8.20
2023-02-01T02:45:32.615Z,8.30
2023-02-01T02:48:14.246Z,8.30
2023-02-01T02:51:20.733Z,8.40
2023-02-01T02:54:31.360Z,8.40
2023-02-01T02:57:21.413Z,8.30
2023-02-01T03:00:07.669Z,8.20
2023-02-01T03:02:54.473Z,8.10
2023-02-01T03:05:21.854Z,8.20
2023-02-01T03:08:04.447Z,8.30
2023-02-01T03:10:43.295Z,8.30
2023-02-01T03:14:01.225Z,8.50
2023-02-01T03:16:30.654Z,8.50
2023-02-01T03:19:00.656Z,8.20
2023-02-01T03:21:51.726Z,8.30
2023-02-01T03:24:36.686Z,8.30
2023-02-01T03:27:18.529Z,8.20
2023-02-01T03:30:08.897Z,8.00
2023-02-01T03:32:59.243Z,8.00
2023-02-01T03:35:49.447Z,8.20
2023-02-01T03:38:28.564Z,8.10
2023-02-01T03:41:18.977Z,8.20
2023-02-01T03:44:07.423Z,8.30
2023-02-01T03:46:47.232Z,8.20
2023-02-01T03:49:28.417Z,8.30
2023-02-01T03:51:58.947Z,8.20
2023-02-01T03:54:29.241Z,8.10
2023-02-01T03:57:02.229Z,8.10
2023-02-01T03:59:29.041Z,7.90
2023-02-01T04:01:55.950Z,7.90
2023-02-01T04:04:22.817Z,8.10
2023-02-01T04:06:53.596Z,8.10
2023-02-01T04:09:21.340Z,8.00
2023-02-01T04:11:48.117Z,8.00
2023-02-01T04:14:14.937Z,8.10
2023-02-01T04:16:41.874Z,8.20
2023-02-01T04:19:09.113Z,8.20
2023-02-01T04:21:36.031Z,8.40
2023-02-01T04:24:02.817Z,8.30
2023-02-01T04:26:29.770Z,8.30
2023-02-01T04:28:56.725Z,8.30
2023-02-01T04:31:26.531Z,8.60
2023-02-01T04:33:55.517Z,8.60
2023-02-01T04:36:23.256Z,8.50
2023-02-01T04:38:51.480Z,8.30
2023-02-01T04:41:23.597Z,8.40
2023-02-01T04:43:52.937Z,8.40
2023-02-01T04:46:20.910Z,8.50
2023-02-01T04:48:47.832Z,8.50
2023-02-01T04:51:16.034Z,8.10
2023-02-01T04:53:43.031Z,8.10
2023-02-01T04:56:09.967Z,7.90
2023-02-01T04:58:37.615Z,7.90
2023-02-01T05:01:06.385Z,8.00
2023-02-01T05:03:36.435Z,8.00
2023-02-01T05:06:05.725Z,7.80
2023-02-01T05:08:33.872Z,7.90
2023-02-01T05:11:03.390Z,8.00
2023-02-01T05:13:49.131Z,7.90
2023-02-01T05:16:17.178Z,7.80
2023-02-01T05:18:43.937Z,7.80
2023-02-01T05:21:10.919Z,7.90
2023-02-01T05:23:57.726Z,8.10
2023-02-01T05:26:25.017Z,8.10
2023-02-01T05:28:52.381Z,8.10
2023-02-01T05:31:19.598Z,8.10
2023-02-01T05:33:46.510Z,8.00
2023-02-01T05:36:13.441Z,8.10
2023-02-01T05:38:40.271Z,8.00
2023-02-01T05:41:07.210Z,8.20
2023-02-01T05:43:34.192Z,8.20
2023-02-01T05:46:01.435Z,7.90
2023-02-01T05:48:28.291Z,8.10
2023-02-01T05:50:55.217Z,8.20
2023-02-01T05:53:22.693Z,8.10
2023-02-01T05:55:49.573Z,8.30
2023-02-01T05:58:16.463Z,8.20
2023-02-01T06:00:43.323Z,8.40
2023-02-01T06:03:10.372Z,8.40
2023-02-01T06:05:37.928Z,8.30
2023-02-01T06:08:05.175Z,8.10
2023-02-01T06:10:31.998Z,8.00
2023-02-01T06:12:58.834Z,8.10
2023-02-01T06:15:25.681Z,7.90
2023-02-01T06:17:52.679Z,8.00
2023-02-01T06:20:19.596Z,8.30
2023-02-01T06:22:46.435Z,8.20
2023-02-01T06:25:13.533Z,8.20
2023-02-01T06:27:40.483Z,8.30
2023-02-01T06:30:08.623Z,8.10
2023-02-01T06:32:35.487Z,8.10
2023-02-01T06:35:02.254Z,8.30
2023-02-01T06:37:30.404Z,8.10
2023-02-01T06:39:57.302Z,8.00
2023-02-01T06:42:24.209Z,8.00
2023-02-01T06:44:51.044Z,7.90
2023-02-01T06:47:17.993Z,8.00
2023-02-01T06:49:44.798Z,7.90
2023-02-01T06:52:11.671Z,8.30
2023-02-01T06:54:38.754Z,8.10
2023-02-01T06:57:05.891Z,8.20
2023-02-01T06:59:32.730Z,8.20
2023-02-01T07:01:59.711Z,8.30
2023-02-01T07:04:27.043Z,8.10
2023-02-01T07:06:53.805Z,7.90
2023-02-01T07:09:20.833Z,8.00
2023-02-01T07:11:47.944Z,8.00
2023-02-01T07:14:14.799Z,8.30
2023-02-01T07:16:41.714Z,8.20
2023-02-01T07:19:08.581Z,8.30
2023-02-01T07:21:35.380Z,8.50
2023-02-01T07:24:02.207Z,8.20
2023-02-01T07:26:29.146Z,8.40
2023-02-01T07:28:56.029Z,8.40
2023-02-01T07:31:23.293Z,8.40
2023-02-01T07:33:53.811Z,8.50
2023-02-01T07:36:21.196Z,8.20
2023-02-01T07:38:48.421Z,8.50
2023-02-01T07:41:16.570Z,8.50
2023-02-01T07:43:43.449Z,8.50
2023-02-01T07:46:11.894Z,8.40
2023-02-01T07:48:39.402Z,8.40
2023-02-01T07:51:12.068Z,8.70
2023-02-01T07:53:39.568Z,8.30
2023-02-01T07:56:17.453Z,8.60
2023-02-01T07:58:49.222Z,8.80
2023-02-01T08:01:26.623Z,8.60
2023-02-01T08:04:03.874Z,8.40
2023-02-01T08:06:34.752Z,8.00
2023-02-01T08:09:02.866Z,8.00
2023-02-01T08:11:30.370Z,8.20
2023-02-01T08:13:58.619Z,8.30
2023-02-01T08:16:25.877Z,8.40
2023-02-01T08:18:55.034Z,8.20
2023-02-01T08:21:39.396Z,8.30
2023-02-01T08:24:09.195Z,8.30
2023-02-01T08:26:37.203Z,8.20
2023-02-01T08:29:07.854Z,8.10
2023-02-01T08:31:35.019Z,8.10
2023-02-01T08:34:06.752Z,8.10
2023-02-01T08:36:33.957Z,8.60
2023-02-01T08:39:01.170Z,8.50
2023-02-01T08:41:30.952Z,8.40
2023-02-01T08:43:58.865Z,8.50
2023-02-01T08:46:26.435Z,8.30
2023-02-01T08:48:53.788Z,8.40
2023-02-01T08:51:23.396Z,8.70
2023-02-01T08:53:51.512Z,8.90
2023-02-01T08:56:21.901Z,8.80
2023-02-01T08:58:48.760Z,8.80
2023-02-01T09:01:18.180Z,8.50
2023-02-01T09:03:45.646Z,8.70
2023-02-01T09:06:15.562Z,8.80
2023-02-01T09:08:43.369Z,8.80
2023-02-01T09:11:20.204Z,8.80
2023-02-01T09:13:48.406Z,8.80
2023-02-01T09:16:15.839Z,8.90
2023-02-01T09:18:55.352Z,9.30
2023-02-01T09:21:29.402Z,9.30
2023-02-01T09:23:56.223Z,9.30
2023-02-01T09:26:31.439Z,9.30
2023-02-01T09:29:00.020Z,9.20
2023-02-01T09:31:27.081Z,9.50
2023-02-01T09:33:54.172Z,9.30
2023-02-01T09:36:20.985Z,9.00
2023-02-01T09:38:52.889Z,9.00
2023-02-01T09:41:49.822Z,9.00
2023-02-01T09:45:13.115Z,8.90
2023-02-01T09:47:49.550Z,9.00
2023-02-01T09:50:23.134Z,9.10
2023-02-01T09:53:31.708Z,8.90
2023-02-01T09:56:13.368Z,8.80
2023-02-01T09:59:11.159Z,8.80
2023-02-01T10:01:38.778Z,8.70
2023-02-01T10:04:14.099Z,8.70
2023-02-01T10:07:03.837Z,8.70
2023-02-01T10:09:45.408Z,8.60
2023-02-01T10:12:47.089Z,8.70
2023-02-01T10:15:41.198Z,8.70
2023-02-01T10:18:42.641Z,8.60
2023-02-01T10:21:39.965Z,8.40
2023-02-01T10:24:33.137Z,8.30
2023-02-01T10:27:31.562Z,8.40
2023-02-01T10:30:22.633Z,8.30
2023-02-01T10:33:24.937Z,8.30
2023-02-01T10:36:26.930Z,8.40
2023-02-01T10:38:53.815Z,8.30
2023-02-01T10:41:27.918Z,8.40
2023-02-01T10:44:01.000Z,8.70
2023-02-01T10:46:27.915Z,8.50
2023-02-01T10:48:57.813Z,8.50
2023-02-01T10:51:36.826Z,8.70
2023-02-01T10:54:34.342Z,8.80
2023-02-01T10:57:01.551Z,8.90
2023-02-01T10:59:31.108Z,8.90
2023-02-01T11:02:14.144Z,8.90
2023-02-01T11:04:41.121Z,8.80
2023-02-01T11:07:29.405Z,8.80
2023-02-01T11:09:58.782Z,8.90
2023-02-01T11:12:38.903Z,8.80
2023-02-01T11:15:25.745Z,8.60
2023-02-01T11:17:55.588Z,8.70
2023-02-01T11:20:42.363Z,8.60
2023-02-01T11:23:26.469Z,8.60
2023-02-01T11:26:02.678Z,8.70
2023-02-01T11:28:34.405Z,8.80
2023-02-01T11:31:08.077Z,8.90
2023-02-01T11:33:38.546Z,8.90
2023-02-01T11:36:34.804Z,9.00
2023-02-01T11:39:13.538Z,8.80
2023-02-01T11:42:14.647Z,8.80
2023-02-01T11:44:48.109Z,9.00
2023-02-01T11:47:35.264Z,9.00
2023-02-01T11:50:16.839Z,9.00
2023-02-01T11:53:15.132Z,9.10
2023-02-01T11:56:05.410Z,9.10
2023-02-01T11:59:06.862Z,9.10
2023-02-01T12:02:46.851Z,9.20
2023-02-01T12:06:05.089Z,9.00
2023-02-01T12:08:59.609Z,9.00
2023-02-01T12:12:01.828Z,9.00
2023-02-01T12:15:29.844Z,9.20
2023-02-01T12:18:34.900Z,9.30
2023-02-01T12:21:48.400Z,9.20
2023-02-01T12:24:56.043Z,9.20
2023-02-01T12:28:04.582Z,9.20
2023-02-01T12:30:47.427Z,9.10
2023-02-01T12:34:01.784Z,9.10
2023-02-01T12:36:44.078Z,9.10
2023-02-01T12:39:32.100Z,9.20
2023-02-01T12:42:19.306Z,9.20
2023-02-01T12:45:03.062Z,9.20
2023-02-01T12:47:42.984Z,9.20
2023-02-01T12:50:22.467Z,9.20
2023-02-01T12:52:53.501Z,9.30
2023-02-01T12:55:37.607Z,9.20
2023-02-01T12:58:36.272Z,9.20
2023-02-01T13:01:48.371Z,9.30
2023-02-01T13:04:34.419Z,9.30
2023-02-01T13:07:18.026Z,9.30
2023-02-01T13:10:13.087Z,9.10
2023-02-01T13:13:01.356Z,9.10
2023-02-01T13:15:44.802Z,9.10
2023-02-01T13:18:20.920Z,9.10
2023-02-01T13:21:03.481Z,9.10
2023-02-01T13:23:38.858Z,9.20
2023-02-01T13:26:05.938Z,9.20
2023-02-01T13:28:47.643Z,9.10
2023-02-01T13:31:45.926Z,9.10
2023-02-01T13:34:55.528Z,9.10
2023-02-01T13:37:40.668Z,9.10
2023-02-01T13:40:39.913Z,9.10
2023-02-01T13:43:22.826Z,9.20
2023-02-01T13:45:55.911Z,9.20
2023-02-01T13:48:53.543Z,9.20
2023-02-01T13:51:41.795Z,9.30
2023-02-01T13:54:26.047Z,9.40
2023-02-01T13:56:55.103Z,9.30
2023-02-01T13:59:40.637Z,9.20
2023-02-01T14:02:41.495Z,9.30
2023-02-01T14:05:35.275Z,9.20
2023-02-01T14:08:08.254Z,9.30
2023-02-01T14:11:00.596Z,9.30
2023-02-01T14:13:39.777Z,9.30
2023-02-01T14:16:07.141Z,9.30
2023-02-01T14:18:41.975Z,9.30
2023-02-01T14:21:37.221Z,9.20
2023-02-01T14:24:28.715Z,9.20
2023-02-01T14:27:18.350Z,9.20
2023-02-01T14:30:00.440Z,9.30
2023-02-01T14:32:37.430Z,9.20
2023-02-01T14:35:18.251Z,9.30
2023-02-01T14:37:46.505Z,9.30
2023-02-01T14:40:13.219Z,9.20
2023-02-01T14:42:43.032Z,9.20
2023-02-01T14:45:25.282Z,9.20
2023-02-01T14:48:07.384Z,9.20
2023-02-01T14:50:34.642Z,9.20
2023-02-01T14:53:13.740Z,9.20
2023-02-01T14:55:46.987Z,9.20
2023-02-01T14:58:52.642Z,9.30
2023-02-01T15:01:25.599Z,9.30
2023-02-01T15:04:19.464Z,9.30
2023-02-01T15:06:58.273Z,9.20
2023-02-01T15:09:32.570Z,9.30
2023-02-01T15:12:25.112Z,9.20
2023-02-01T15:15:15.393Z,9.20
2023-02-01T15:17:42.652Z,9.30
2023-02-01T15:20:34.046Z,9.30
2023-02-01T15:23:18.291Z,9.30
2023-02-01T15:25:47.762Z,9.30
2023-02-01T15:28:17.279Z,9.30
2023-02-01T15:31:06.475Z,9.20
2023-02-01T15:33:33.564Z,9.30
2023-02-01T15:36:06.527Z,9.30
2023-02-01T15:38:37.633Z,9.30
2023-02-01T15:41:29.425Z,9.30
2023-02-01T15:43:56.140Z,9.30
2023-02-01T15:46:36.572Z,9.40
2023-02-01T15:49:04.665Z,9.30
2023-02-01T15:51:36.150Z,9.20
2023-02-01T15:54:14.496Z,9.30
2023-02-01T15:56:42.535Z,9.30
2023-02-01T15:59:19.747Z,9.30
2023-02-01T16:01:47.875Z,9.40
2023-02-01T16:04:31.222Z,9.30
2023-02-01T16:07:04.212Z,9.30
2023-02-01T16:09:59.752Z,9.40
2023-02-01T16:12:45.415Z,9.40
2023-02-01T16:15:13.859Z,9.30
2023-02-01T16:17:40.672Z,9.20
2023-02-01T16:20:08.391Z,9.20
2023-02-01T16:22:35.145Z,9.30
2023-02-01T16:25:03.020Z,9.20
2023-02-01T16:27:29.848Z,9.20
2023-02-01T16:29:57.744Z,9.20
2023-02-01T16:32:25.109Z,9.30
2023-02-01T16:34:53.260Z,9.30
2023-02-01T16:37:24.793Z,9.30
2023-02-01T16:39:52.114Z,9.30
2023-02-01T16:42:18.963Z,9.30
2023-02-01T16:44:45.887Z,9.20
2023-02-01T16:47:21.611Z,9.30
2023-02-01T16:49:49.219Z,9.20
2023-02-01T16:52:21.666Z,9.30
2023-02-01T16:54:49.000Z,9.30
2023-02-01T16:57:18.764Z,9.30
2023-02-01T16:59:45.726Z,9.30
2023-02-01T17:02:16.086Z,9.30
2023-02-01T17:04:43.728Z,9.30
2023-02-01T17:07:17.239Z,9.20
2023-02-01T17:09:45.302Z,9.20
2023-02-01T17:12:30.448Z,9.30
2023-02-01T17:14:58.808Z,9.40
2023-02-01T17:17:39.778Z,9.40
2023-02-01T17:20:07.683Z,9.50
2023-02-01T17:22:35.035Z,9.50
2023-02-01T17:25:02.224Z,9.30
2023-02-01T17:27:30.380Z,9.30
2023-02-01T17:29:57.276Z,9.30
2023-02-01T17:32:26.555Z,9.30
2023-02-01T17:34:53.444Z,9.30
2023-02-01T17:37:31.596Z,9.30
2023-02-01T17:39:59.441Z,9.30
2023-02-01T17:42:30.430Z,9.30
2023-02-01T17:45:02.504Z,9.40
2023-02-01T17:47:29.354Z,9.40
2023-02-01T17:49:59.075Z,9.50
2023-02-01T17:52:26.279Z,9.40
2023-02-01T17:54:54.364Z,9.40
2023-02-01T17:57:21.794Z,9.40
2023-02-01T17:59:48.707Z,9.40
2023-02-01T18:02:24.372Z,9.40
2023-02-01T18:04:52.031Z,9.40
2023-02-01T18:07:19.153Z,9.40
2023-02-01T18:09:46.219Z,9.40
2023-02-01T18:12:22.013Z,9.50
2023-02-01T18:14:49.065Z,9.50
2023-02-01T18:17:16.023Z,9.50
2023-02-01T18:19:42.914Z,9.40
2023-02-01T18:22:18.080Z,9.60
2023-02-01T18:24:45.234Z,9.70
2023-02-01T18:27:12.257Z,9.60
2023-02-01T18:29:39.072Z,9.60
2023-02-01T18:32:05.969Z,9.70
2023-02-01T18:34:33.011Z,9.60
2023-02-01T18:37:00.536Z,9.60
2023-02-01T18:39:27.365Z,9.40
2023-02-01T18:41:54.232Z,9.50
2023-02-01T18:44:20.979Z,9.40
2023-02-01T18:46:48.048Z,9.40
2023-02-01T18:49:17.968Z,9.50
2023-02-01T18:51:46.583Z,9.50
2023-02-01T18:54:13.401Z,9.50
2023-02-01T18:56:40.415Z,9.40
2023-02-01T18:59:07.252Z,9.40
2023-02-01T19:01:34.034Z,9.40
2023-02-01T19:04:07.412Z,9.40
2023-02-01T19:06:39.857Z,9.40
2023-02-01T19:09:06.727Z,9.40
2023-02-01T19:11:34.556Z,9.50
2023-02-01T19:14:01.382Z,9.50
2023-02-01T19:16:28.265Z,9.50
2023-02-01T19:18:55.200Z,9.60
2023-02-01T19:21:22.049Z,9.50
2023-02-01T19:23:48.937Z,9.40
2023-02-01T19:26:18.412Z,9.40
2023-02-01T19:28:47.686Z,9.50
2023-02-01T19:31:16.590Z,9.50
2023-02-01T19:33:43.924Z,9.50
2023-02-01T19:36:11.120Z,9.50
2023-02-01T19:38:38.844Z,9.50
2023-02-01T19:41:06.454Z,9.50
2023-02-01T19:43:34.140Z,9.50
2023-02-01T19:46:02.888Z,9.50
2023-02-01T19:48:31.638Z,9.60
2023-02-01T19:50:59.300Z,9.60
2023-02-01T19:53:27.976Z,9.50
2023-02-01T19:56:01.521Z,9.50
2023-02-01T19:58:28.380Z,9.50
2023-02-01T20:00:56.081Z,9.50
2023-02-01T20:03:24.174Z,9.30
2023-02-01T20:05:56.967Z,9.30
2023-02-01T20:08:24.676Z,9.30
2023-02-01T20:10:51.684Z,9.30
2023-02-01T20:13:18.876Z,9.30
2023-02-01T20:15:46.259Z,9.30
2023-02-01T20:18:13.477Z,9.20
2023-02-01T20:20:41.849Z,9.30
2023-02-01T20:23:08.976Z,9.30
2023-02-01T20:25:37.907Z,9.30
2023-02-01T20:28:04.980Z,9.30
2023-02-01T20:30:32.365Z,9.40
2023-02-01T20:32:59.386Z,9.40
2023-02-01T20:35:26.597Z,9.40
2023-02-01T20:37:54.201Z,9.40
2023-02-01T20:40:21.120Z,9.30
2023-02-01T20:42:48.170Z,9.40
2023-02-01T20:45:15.153Z,9.40
2023-02-01T20:47:43.105Z,9.30
2023-02-01T20:50:10.919Z,9.40
2023-02-01T20:52:37.794Z,9.40
2023-02-01T20:55:05.048Z,9.40
2023-02-01T20:57:31.940Z,9.30
2023-02-01T20:59:59.243Z,9.40
2023-02-01T21:02:26.455Z,9.40
2023-02-01T21:04:53.416Z,9.40
2023-02-01T21:07:20.309Z,9.40
2023-02-01T21:09:47.245Z,9.50
2023-02-01T21:12:14.032Z,9.60
2023-02-01T21:14:40.804Z,9.50
2023-02-01T21:17:07.832Z,9.50
2023-02-01T21:19:43.369Z,9.40
2023-02-01T21:22:15.199Z,9.40
2023-02-01T21:24:42.677Z,9.50
2023-02-01T21:27:10.264Z,9.40
2023-02-01T21:29:37.328Z,9.40
2023-02-01T21:32:06.795Z,9.40
2023-02-01T21:34:34.881Z,9.40
2023-02-01T21:37:02.323Z,9.40
2023-02-01T21:39:29.163Z,9.40
2023-02-01T21:42:16.533Z,9.40
2023-02-01T21:44:46.148Z,9.50
2023-02-01T21:47:17.197Z,9.40
2023-02-01T21:49:45.971Z,9.40
2023-02-01T21:52:14.329Z,9.30
2023-02-01T21:54:41.695Z,9.40
2023-02-01T21:57:11.872Z,9.40
2023-02-01T21:59:40.776Z,9.40
2023-02-01T22:02:16.013Z,9.40
2023-02-01T22:04:44.342Z,9.40
2023-02-01T22:07:12.297Z,9.20
2023-02-01T22:09:39.702Z,9.20
2023-02-01T22:12:08.404Z,9.20
2023-02-01T22:14:35.298Z,9.20
2023-02-01T22:17:02.098Z,9.20
2023-02-01T22:19:28.932Z,9.20
2023-02-01T22:21:55.731Z,9.20
2023-02-01T22:24:22.758Z,9.00
2023-02-01T22:26:50.225Z,9.00
2023-02-01T22:29:19.114Z,9.00
2023-02-01T22:31:46.556Z,8.90
2023-02-01T22:34:13.783Z,8.90
2023-02-01T22:36:41.751Z,8.80
2023-02-01T22:39:08.969Z,8.70
2023-02-01T22:41:35.745Z,8.80
2023-02-01T22:44:02.772Z,8.70
2023-02-01T22:46:31.325Z,8.70
2023-02-01T22:48:59.984Z,8.60
2023-02-01T22:51:30.424Z,8.60
2023-02-01T22:54:00.049Z,8.70
2023-02-01T22:56:36.753Z,8.60
2023-02-01T22:59:07.550Z,8.60
2023-02-01T23:01:35.308Z,8.60
2023-02-01T23:04:09.124Z,8.60
2023-02-01T23:06:36.165Z,8.70
2023-02-01T23:09:17.470Z,8.70
2023-02-01T23:11:45.210Z,8.60
2023-02-01T23:14:14.461Z,8.60
2023-02-01T23:16:44.264Z,8.70
2023-02-01T23:19:11.216Z,8.60
2023-02-01T23:21:38.357Z,8.70
2023-02-01T23:24:07.698Z,8.70
2023-02-01T23:26:35.192Z,8.60
2023-02-01T23:29:03.668Z,8.60
2023-02-01T23:31:34.888Z,8.60
2023-02-01T23:34:03.412Z,8.60
2023-02-01T23:36:31.494Z,8.60
2023-02-01T23:38:59.757Z,8.60
2023-02-01T23:41:29.856Z,8.60
2023-02-01T23:43:59.792Z,8.60
2023-02-01T23:46:34.627Z,8.60
2023-02-01T23:49:04.483Z,8.70
2023-02-01T23:51:31.607Z,8.60
2023-02-01T23:53:59.535Z,8.60
2023-02-01T23:56:34.233Z,8.60
2023-02-01T23:59:09.128Z,8.60
